sensor_id;sensor_type;location;lat;lon;timestamp;pressure;altitude;pressure_sealevel;temperature;humidity
29385;BME280;16367;48.736;9.218;2023-03-19T00:01:57;-23525.53;;;11.31;67.46
29385;BME280;16367;48.736;9.218;2023-03-19T00:04:16;-23527.75;;;11.38;67.06
29385;BME280;16367;48.736;9.218;2023-03-19T00:06:18;-23529.97;;;11.45;67.16
29385;BME280;16367;48.736;9.218;2023-03-19T00:08:23;-23530.59;;;11.47;66.78
29385;BME280;16367;48.736;9.218;2023-03-19T00:10:25;-23530.28;;;11.46;66.90
29385;BME280;16367;48.736;9.218;2023-03-19T00:12:28;-23530.59;;;11.47;67.13
29385;BME280;16367;48.736;9.218;2023-03-19T00:14:31;-23532.81;;;11.54;66.36
29385;BME280;16367;48.736;9.218;2023-03-19T00:16:34;-23530.59;;;11.47;67.22
29385;BME280;16367;48.736;9.218;2023-03-19T00:18:37;-23529.34;;;11.43;67.42
29385;BME280;16367;48.736;9.218;2023-03-19T00:20:40;-23528.38;;;11.40;67.56
29385;BME280;16367;48.736;9.218;2023-03-19T00:22:43;-23529.00;;;11.42;67.73
29385;BME280;16367;48.736;9.218;2023-03-19T00:24:47;-23531.38;;;11.49;67.46
29385;BME280;16367;48.736;9.218;2023-03-19T00:26:50;-23532.19;;;11.52;67.26
29385;BME280;16367;48.736;9.218;2023-03-19T00:28:52;-23529.00;;;11.42;67.66
29385;BME280;16367;48.736;9.218;2023-03-19T00:30:55;-23528.06;;;11.39;67.99
29385;BME280;16367;48.736;9.218;2023-03-19T00:32:58;-23531.84;;;11.51;66.89
29385;BME280;16367;48.736;9.218;2023-03-19T00:35:01;-23534.06;;;11.58;66.49
29385;BME280;16367;48.736;9.218;2023-03-19T00:37:04;-23534.56;;;11.59;65.86
29385;BME280;16367;48.736;9.218;2023-03-19T00:39:07;-23533.59;;;11.56;66.40
29385;BME280;16367;48.736;9.218;2023-03-19T00:41:12;-23528.22;;;11.39;67.67
29385;BME280;16367;48.736;9.218;2023-03-19T00:43:15;-23529.16;;;11.42;66.44
29385;BME280;16367;48.736;9.218;2023-03-19T00:45:18;-23530.59;;;11.47;66.09
29385;BME280;16367;48.736;9.218;2023-03-19T00:47:21;-23531.53;;;11.50;65.98
29385;BME280;16367;48.736;9.218;2023-03-19T00:49:24;-23529.97;;;11.45;66.42
29385;BME280;16367;48.736;9.218;2023-03-19T00:51:27;-23530.91;;;11.48;65.68
29385;BME280;16367;48.736;9.218;2023-03-19T00:53:29;-23528.69;;;11.41;66.74
29385;BME280;16367;48.736;9.218;2023-03-19T00:55:32;-23523.63;;;11.24;68.66
29385;BME280;16367;48.736;9.218;2023-03-19T00:57:37;-23523.31;;;11.23;67.93
29385;BME280;16367;48.736;9.218;2023-03-19T00:59:39;-23521.56;;;11.18;67.99
29385;BME280;16367;48.736;9.218;2023-03-19T01:01:42;-23516.97;;;11.03;69.38
29385;BME280;16367;48.736;9.218;2023-03-19T01:03:45;-23519.81;;;11.12;69.49
29385;BME280;16367;48.736;9.218;2023-03-19T01:05:48;-23523.31;;;11.23;68.11
29385;BME280;16367;48.736;9.218;2023-03-19T01:07:50;-23524.56;;;11.27;67.69
29385;BME280;16367;48.736;9.218;2023-03-19T01:09:52;-23522.19;;;11.20;69.47
29385;BME280;16367;48.736;9.218;2023-03-19T01:11:55;-23525.84;;;11.32;68.29
29385;BME280;16367;48.736;9.218;2023-03-19T01:13:59;-23524.56;;;11.27;69.45
29385;BME280;16367;48.736;9.218;2023-03-19T01:16:03;-23518.88;;;11.09;70.33
29385;BME280;16367;48.736;9.218;2023-03-19T01:18:07;-23521.09;;;11.16;70.05
29385;BME280;16367;48.736;9.218;2023-03-19T01:20:10;-23520.78;;;11.15;70.33
29385;BME280;16367;48.736;9.218;2023-03-19T01:22:16;-23521.72;;;11.18;71.27
29385;BME280;16367;48.736;9.218;2023-03-19T01:24:18;-23528.69;;;11.41;69.89
29385;BME280;16367;48.736;9.218;2023-03-19T01:26:21;-23525.53;;;11.31;69.47
29385;BME280;16367;48.736;9.218;2023-03-19T01:28:24;-23513.81;;;10.93;71.51
29385;BME280;16367;48.736;9.218;2023-03-19T01:30:28;-23511.91;;;10.87;72.67
29385;BME280;16367;48.736;9.218;2023-03-19T01:32:31;-23516.03;;;11.00;73.18
29385;BME280;16367;48.736;9.218;2023-03-19T01:34:34;-23512.53;;;10.89;72.19
29385;BME280;16367;48.736;9.218;2023-03-19T01:36:37;-23511.28;;;10.85;72.18
29385;BME280;16367;48.736;9.218;2023-03-19T01:38:39;-23513.03;;;10.91;72.62
29385;BME280;16367;48.736;9.218;2023-03-19T01:40:43;-23511.28;;;10.85;72.75
29385;BME280;16367;48.736;9.218;2023-03-19T01:42:53;-23511.75;;;10.87;72.67
29385;BME280;16367;48.736;9.218;2023-03-19T01:44:56;-23510.16;;;10.82;72.62
29385;BME280;16367;48.736;9.218;2023-03-19T01:47:03;-23505.25;;;10.66;74.10
29385;BME280;16367;48.736;9.218;2023-03-19T01:49:10;-23503.34;;;10.60;74.14
29385;BME280;16367;48.736;9.218;2023-03-19T01:51:15;-23502.41;;;10.57;74.23
29385;BME280;16367;48.736;9.218;2023-03-19T01:53:20;-23500.03;;;10.49;74.98
29385;BME280;16367;48.736;9.218;2023-03-19T01:55:24;-23501.28;;;10.54;74.73
29385;BME280;16367;48.736;9.218;2023-03-19T01:57:28;-23506.84;;;10.71;74.40
29385;BME280;16367;48.736;9.218;2023-03-19T01:59:34;-23511.91;;;10.87;71.97
29385;BME280;16367;48.736;9.218;2023-03-19T02:01:42;-23518.88;;;11.09;70.04
29385;BME280;16367;48.736;9.218;2023-03-19T02:03:49;-23521.72;;;11.18;69.19
29385;BME280;16367;48.736;9.218;2023-03-19T02:05:54;-23524.09;;;11.26;68.56
29385;BME280;16367;48.736;9.218;2023-03-19T02:07:59;-23524.91;;;11.29;68.59
29385;BME280;16367;48.736;9.218;2023-03-19T02:10:06;-23524.56;;;11.27;68.77
29385;BME280;16367;48.736;9.218;2023-03-19T02:12:10;-23522.38;;;11.20;70.49
29385;BME280;16367;48.736;9.218;2023-03-19T02:14:14;-23523.94;;;11.25;72.32
29385;BME280;16367;48.736;9.218;2023-03-19T02:16:16;-23522.38;;;11.20;72.87
29385;BME280;16367;48.736;9.218;2023-03-19T02:18:20;-23520.31;;;11.14;74.93
29385;BME280;16367;48.736;9.218;2023-03-19T02:20:29;-23515.72;;;10.99;77.96
29385;BME280;16367;48.736;9.218;2023-03-19T02:22:35;-23518.56;;;11.08;81.28
29385;BME280;16367;48.736;9.218;2023-03-19T02:24:43;-23518.56;;;11.08;85.98
29385;BME280;16367;48.736;9.218;2023-03-19T02:26:49;-23513.50;;;10.92;90.88
29385;BME280;16367;48.736;9.218;2023-03-19T02:28:52;-23512.22;;;10.88;94.13
29385;BME280;16367;48.736;9.218;2023-03-19T02:30:55;-23509.84;;;10.81;96.21
29385;BME280;16367;48.736;9.218;2023-03-19T02:32:58;-23513.19;;;10.91;99.13
29385;BME280;16367;48.736;9.218;2023-03-19T02:35:00;-23513.19;;;10.91;100.00
29385;BME280;16367;48.736;9.218;2023-03-19T02:37:07;-23511.28;;;10.85;100.00
29385;BME280;16367;48.736;9.218;2023-03-19T02:39:15;-23514.75;;;10.96;100.00
29385;BME280;16367;48.736;9.218;2023-03-19T02:41:21;-23515.88;;;11.00;100.00
29385;BME280;16367;48.736;9.218;2023-03-19T02:43:25;-23513.19;;;10.91;100.00
29385;BME280;16367;48.736;9.218;2023-03-19T02:45:29;-23508.09;;;10.75;100.00
29385;BME280;16367;48.736;9.218;2023-03-19T02:47:32;-23507.31;;;10.73;100.00
29385;BME280;16367;48.736;9.218;2023-03-19T02:49:34;-23506.06;;;10.69;100.00
29385;BME280;16367;48.736;9.218;2023-03-19T02:51:37;-23505.91;;;10.68;100.00
29385;BME280;16367;48.736;9.218;2023-03-19T02:53:40;-23508.44;;;10.76;100.00
29385;BME280;16367;48.736;9.218;2023-03-19T02:55:42;-23507.47;;;10.73;100.00
29385;BME280;16367;48.736;9.218;2023-03-19T02:57:45;-23510.00;;;10.81;100.00
29385;BME280;16367;48.736;9.218;2023-03-19T02:59:49;-23507.94;;;10.75;100.00
29385;BME280;16367;48.736;9.218;2023-03-19T03:01:52;-23507.16;;;10.72;100.00
29385;BME280;16367;48.736;9.218;2023-03-19T03:03:55;-23504.63;;;10.64;100.00
29385;BME280;16367;48.736;9.218;2023-03-19T03:05:58;-23502.72;;;10.58;100.00
29385;BME280;16367;48.736;9.218;2023-03-19T03:08:00;-23494.81;;;10.33;100.00
29385;BME280;16367;48.736;9.218;2023-03-19T03:10:04;-23496.72;;;10.39;100.00
29385;BME280;16367;48.736;9.218;2023-03-19T03:12:08;-23486.25;;;10.06;100.00
29385;BME280;16367;48.736;9.218;2023-03-19T03:14:10;-23484.03;;;9.99;100.00
29385;BME280;16367;48.736;9.218;2023-03-19T03:16:14;-23483.53;;;9.97;100.00
29385;BME280;16367;48.736;9.218;2023-03-19T03:18:17;-23484.97;;;10.02;100.00
29385;BME280;16367;48.736;9.218;2023-03-19T03:20:20;-23484.66;;;10.01;100.00
29385;BME280;16367;48.736;9.218;2023-03-19T03:22:23;-23488.47;;;10.13;100.00
29385;BME280;16367;48.736;9.218;2023-03-19T03:24:26;-23481.97;;;9.92;100.00
29385;BME280;16367;48.736;9.218;2023-03-19T03:26:29;-23474.50;;;9.68;100.00
29385;BME280;16367;48.736;9.218;2023-03-19T03:28:32;-23471.66;;;9.59;100.00
29385;BME280;16367;48.736;9.218;2023-03-19T03:30:34;-23468.00;;;9.48;100.00
29385;BME280;16367;48.736;9.218;2023-03-19T03:32:39;-23471.97;;;9.60;100.00
29385;BME280;16367;48.736;9.218;2023-03-19T03:34:42;-23476.56;;;9.75;100.00
29385;BME280;16367;48.736;9.218;2023-03-19T03:36:46;-23477.03;;;9.76;100.00
29385;BME280;16367;48.736;9.218;2023-03-19T03:38:49;-23480.38;;;9.87;100.00
29385;BME280;16367;48.736;9.218;2023-03-19T03:40:52;-23481.47;;;9.91;100.00
29385;BME280;16367;48.736;9.218;2023-03-19T03:42:55;-23476.25;;;9.74;100.00
29385;BME280;16367;48.736;9.218;2023-03-19T03:44:58;-23477.69;;;9.78;100.00
29385;BME280;16367;48.736;9.218;2023-03-19T03:47:01;-23476.41;;;9.74;100.00
29385;BME280;16367;48.736;9.218;2023-03-19T03:49:05;-23475.94;;;9.73;100.00
29385;BME280;16367;48.736;9.218;2023-03-19T03:51:08;-23475.47;;;9.71;100.00
29385;BME280;16367;48.736;9.218;2023-03-19T03:53:10;-23473.41;;;9.65;100.00
29385;BME280;16367;48.736;9.218;2023-03-19T03:55:13;-23474.81;;;9.69;100.00
29385;BME280;16367;48.736;9.218;2023-03-19T03:57:16;-23474.34;;;9.68;100.00
29385;BME280;16367;48.736;9.218;2023-03-19T03:59:19;-23474.81;;;9.69;100.00
29385;BME280;16367;48.736;9.218;2023-03-19T04:01:22;-23474.19;;;9.67;100.00
29385;BME280;16367;48.736;9.218;2023-03-19T04:03:24;-23471.97;;;9.60;100.00
29385;BME280;16367;48.736;9.218;2023-03-19T04:05:28;-23470.88;;;9.57;100.00
29385;BME280;16367;48.736;9.218;2023-03-19T04:07:31;-23472.91;;;9.63;100.00
29385;BME280;16367;48.736;9.218;2023-03-19T04:09:34;-23471.03;;;9.57;100.00
29385;BME280;16367;48.736;9.218;2023-03-19T04:11:38;-23471.97;;;9.60;100.00
29385;BME280;16367;48.736;9.218;2023-03-19T04:13:40;-23471.81;;;9.60;100.00
29385;BME280;16367;48.736;9.218;2023-03-19T04:15:43;-23471.50;;;9.59;100.00
29385;BME280;16367;48.736;9.218;2023-03-19T04:17:47;-23471.97;;;9.60;100.00
29385;BME280;16367;48.736;9.218;2023-03-19T04:19:49;-23472.13;;;9.61;100.00
29385;BME280;16367;48.736;9.218;2023-03-19T04:21:53;-23471.34;;;9.58;100.00
29385;BME280;16367;48.736;9.218;2023-03-19T04:23:56;-23472.28;;;9.61;100.00
29385;BME280;16367;48.736;9.218;2023-03-19T04:26:00;-23474.81;;;9.69;100.00
29385;BME280;16367;48.736;9.218;2023-03-19T04:28:04;-23470.38;;;9.55;100.00
29385;BME280;16367;48.736;9.218;2023-03-19T04:30:08;-23470.88;;;9.57;100.00
29385;BME280;16367;48.736;9.218;2023-03-19T04:32:12;-23466.56;;;9.43;100.00
29385;BME280;16367;48.736;9.218;2023-03-19T04:34:15;-23465.00;;;9.38;100.00
29385;BME280;16367;48.736;9.218;2023-03-19T04:36:19;-23464.69;;;9.37;100.00
29385;BME280;16367;48.736;9.218;2023-03-19T04:38:24;-23464.19;;;9.36;100.00
29385;BME280;16367;48.736;9.218;2023-03-19T04:40:28;-23464.38;;;9.36;100.00
29385;BME280;16367;48.736;9.218;2023-03-19T04:42:30;-23465.78;;;9.41;100.00
29385;BME280;16367;48.736;9.218;2023-03-19T04:44:33;-23467.22;;;9.45;100.00
29385;BME280;16367;48.736;9.218;2023-03-19T04:46:35;-23463.56;;;9.34;100.00
29385;BME280;16367;48.736;9.218;2023-03-19T04:48:38;-23460.56;;;9.24;100.00
29385;BME280;16367;48.736;9.218;2023-03-19T04:50:41;-23458.97;;;9.19;100.00
29385;BME280;16367;48.736;9.218;2023-03-19T04:52:44;-23461.50;;;9.27;100.00
29385;BME280;16367;48.736;9.218;2023-03-19T04:54:48;-23458.97;;;9.19;100.00
29385;BME280;16367;48.736;9.218;2023-03-19T04:56:50;-23457.22;;;9.14;100.00
29385;BME280;16367;48.736;9.218;2023-03-19T04:58:53;-23456.13;;;9.10;100.00
29385;BME280;16367;48.736;9.218;2023-03-19T05:00:56;-23455.16;;;9.07;100.00
29385;BME280;16367;48.736;9.218;2023-03-19T05:02:59;-23458.03;;;9.16;100.00
29385;BME280;16367;48.736;9.218;2023-03-19T05:05:01;-23456.44;;;9.11;100.00
29385;BME280;16367;48.736;9.218;2023-03-19T05:07:05;-23455.78;;;9.09;100.00
29385;BME280;16367;48.736;9.218;2023-03-19T05:09:08;-23456.13;;;9.10;100.00
29385;BME280;16367;48.736;9.218;2023-03-19T05:11:12;-23455.16;;;9.07;100.00
29385;BME280;16367;48.736;9.218;2023-03-19T05:13:15;-23455.00;;;9.07;100.00
29385;BME280;16367;48.736;9.218;2023-03-19T05:15:19;-23454.22;;;9.04;100.00
29385;BME280;16367;48.736;9.218;2023-03-19T05:17:21;-23454.38;;;9.05;100.00
29385;BME280;16367;48.736;9.218;2023-03-19T05:19:24;-23451.50;;;8.95;100.00
29385;BME280;16367;48.736;9.218;2023-03-19T05:21:27;-23453.25;;;9.01;100.00
29385;BME280;16367;48.736;9.218;2023-03-19T05:23:30;-23452.31;;;8.98;100.00
29385;BME280;16367;48.736;9.218;2023-03-19T05:25:33;-23452.63;;;8.99;100.00
29385;BME280;16367;48.736;9.218;2023-03-19T05:27:38;-23452.78;;;8.99;100.00
29385;BME280;16367;48.736;9.218;2023-03-19T05:29:40;-23461.81;;;9.28;100.00
29385;BME280;16367;48.736;9.218;2023-03-19T05:31:43;-23453.72;;;9.02;100.00
29385;BME280;16367;48.736;9.218;2023-03-19T05:33:46;-23453.91;;;9.03;100.00
29385;BME280;16367;48.736;9.218;2023-03-19T05:35:49;-23452.00;;;8.97;100.00
29385;BME280;16367;48.736;9.218;2023-03-19T05:37:52;-23454.22;;;9.04;100.00
29385;BME280;16367;48.736;9.218;2023-03-19T05:39:55;-23454.22;;;9.04;100.00
29385;BME280;16367;48.736;9.218;2023-03-19T05:41:57;-23452.31;;;8.98;100.00
29385;BME280;16367;48.736;9.218;2023-03-19T05:44:02;-23449.78;;;8.90;100.00
29385;BME280;16367;48.736;9.218;2023-03-19T05:46:05;-23448.19;;;8.85;100.00
29385;BME280;16367;48.736;9.218;2023-03-19T05:48:08;-23450.09;;;8.91;100.00
29385;BME280;16367;48.736;9.218;2023-03-19T05:50:11;-23449.28;;;8.88;100.00
29385;BME280;16367;48.736;9.218;2023-03-19T05:52:13;-23450.41;;;8.92;100.00
29385;BME280;16367;48.736;9.218;2023-03-19T05:54:16;-23450.41;;;8.92;100.00
29385;BME280;16367;48.736;9.218;2023-03-19T05:56:19;-23449.78;;;8.90;100.00
29385;BME280;16367;48.736;9.218;2023-03-19T05:58:22;-23452.94;;;9.00;100.00
29385;BME280;16367;48.736;9.218;2023-03-19T06:00:26;-23452.31;;;8.98;100.00
29385;BME280;16367;48.736;9.218;2023-03-19T06:02:28;-23454.53;;;9.05;100.00
29385;BME280;16367;48.736;9.218;2023-03-19T06:04:31;-23452.31;;;8.98;100.00
29385;BME280;16367;48.736;9.218;2023-03-19T06:06:34;-23455.47;;;9.08;100.00
29385;BME280;16367;48.736;9.218;2023-03-19T06:08:36;-23455.63;;;9.09;100.00
29385;BME280;16367;48.736;9.218;2023-03-19T06:10:39;-23450.88;;;8.93;100.00
29385;BME280;16367;48.736;9.218;2023-03-19T06:12:42;-23454.06;;;9.04;100.00
29385;BME280;16367;48.736;9.218;2023-03-19T06:14:44;-23454.22;;;9.04;100.00
29385;BME280;16367;48.736;9.218;2023-03-19T06:16:49;-23452.16;;;8.97;100.00
29385;BME280;16367;48.736;9.218;2023-03-19T06:18:52;-23452.78;;;8.99;100.00
29385;BME280;16367;48.736;9.218;2023-03-19T06:20:55;-23453.25;;;9.01;100.00
29385;BME280;16367;48.736;9.218;2023-03-19T06:22:57;-23451.50;;;8.95;100.00
29385;BME280;16367;48.736;9.218;2023-03-19T06:25:00;-23450.56;;;8.92;100.00
29385;BME280;16367;48.736;9.218;2023-03-19T06:27:03;-23453.09;;;9.00;100.00
29385;BME280;16367;48.736;9.218;2023-03-19T06:29:06;-23453.91;;;9.03;100.00
29385;BME280;16367;48.736;9.218;2023-03-19T06:31:08;-23453.91;;;9.03;100.00
29385;BME280;16367;48.736;9.218;2023-03-19T06:33:12;-23460.72;;;9.25;100.00
29385;BME280;16367;48.736;9.218;2023-03-19T06:35:16;-23461.66;;;9.28;100.00
29385;BME280;16367;48.736;9.218;2023-03-19T06:37:18;-23454.84;;;9.06;100.00
29385;BME280;16367;48.736;9.218;2023-03-19T06:39:21;-23453.91;;;9.03;100.00
29385;BME280;16367;48.736;9.218;2023-03-19T06:41:24;-23453.25;;;9.01;100.00
29385;BME280;16367;48.736;9.218;2023-03-19T06:43:26;-23459.44;;;9.21;100.00
29385;BME280;16367;48.736;9.218;2023-03-19T06:45:29;-23458.66;;;9.18;100.00
29385;BME280;16367;48.736;9.218;2023-03-19T06:47:32;-23458.97;;;9.19;100.00
29385;BME280;16367;48.736;9.218;2023-03-19T06:49:36;-23457.06;;;9.13;100.00
29385;BME280;16367;48.736;9.218;2023-03-19T06:51:39;-23457.69;;;9.15;100.00
29385;BME280;16367;48.736;9.218;2023-03-19T06:53:41;-23458.97;;;9.19;100.00
29385;BME280;16367;48.736;9.218;2023-03-19T06:55:44;-23463.25;;;9.33;100.00
29385;BME280;16367;48.736;9.218;2023-03-19T06:57:47;-23466.25;;;9.42;100.00
29385;BME280;16367;48.736;9.218;2023-03-19T06:59:50;-23464.69;;;9.37;100.00
29385;BME280;16367;48.736;9.218;2023-03-19T07:01:53;-23468.50;;;9.49;100.00
29385;BME280;16367;48.736;9.218;2023-03-19T07:03:56;-23469.75;;;9.53;100.00
29385;BME280;16367;48.736;9.218;2023-03-19T07:06:00;-23461.19;;;9.26;100.00
29385;BME280;16367;48.736;9.218;2023-03-19T07:08:03;-23458.97;;;9.19;100.00
29385;BME280;16367;48.736;9.218;2023-03-19T07:10:11;-23465.31;;;9.39;100.00
29385;BME280;16367;48.736;9.218;2023-03-19T07:12:14;-23464.38;;;9.36;100.00
29385;BME280;16367;48.736;9.218;2023-03-19T07:14:17;-23465.16;;;9.39;100.00
29385;BME280;16367;48.736;9.218;2023-03-19T07:16:20;-23476.25;;;9.74;100.00
29385;BME280;16367;48.736;9.218;2023-03-19T07:18:22;-23481.31;;;9.90;100.00
29385;BME280;16367;48.736;9.218;2023-03-19T07:20:25;-23484.34;;;10.00;100.00
29385;BME280;16367;48.736;9.218;2023-03-19T07:22:30;-23475.31;;;9.71;100.00
29385;BME280;16367;48.736;9.218;2023-03-19T07:24:32;-23472.13;;;9.61;100.00
29385;BME280;16367;48.736;9.218;2023-03-19T07:26:35;-23472.59;;;9.62;100.00
29385;BME280;16367;48.736;9.218;2023-03-19T07:28:38;-23475.31;;;9.71;100.00
29385;BME280;16367;48.736;9.218;2023-03-19T07:30:41;-23475.94;;;9.73;100.00
29385;BME280;16367;48.736;9.218;2023-03-19T07:32:43;-23475.78;;;9.72;100.00
29385;BME280;16367;48.736;9.218;2023-03-19T07:34:46;-23479.91;;;9.86;100.00
29385;BME280;16367;48.736;9.218;2023-03-19T07:36:49;-23478.94;;;9.83;100.00
29385;BME280;16367;48.736;9.218;2023-03-19T07:38:54;-23487.19;;;10.09;100.00
29385;BME280;16367;48.736;9.218;2023-03-19T07:40:57;-23489.09;;;10.15;100.00
29385;BME280;16367;48.736;9.218;2023-03-19T07:43:03;-23482.13;;;9.93;100.00
29385;BME280;16367;48.736;9.218;2023-03-19T07:45:07;-23481.81;;;9.92;100.00
29385;BME280;16367;48.736;9.218;2023-03-19T07:47:10;-23481.16;;;9.90;100.00
29385;BME280;16367;48.736;9.218;2023-03-19T07:49:28;-23482.44;;;9.94;100.00
29385;BME280;16367;48.736;9.218;2023-03-19T07:51:31;-23481.31;;;9.90;100.00
29385;BME280;16367;48.736;9.218;2023-03-19T07:53:34;-23482.75;;;9.95;100.00
29385;BME280;16367;48.736;9.218;2023-03-19T07:55:38;-23485.28;;;10.03;100.00
29385;BME280;16367;48.736;9.218;2023-03-19T07:57:41;-23484.03;;;9.99;100.00
29385;BME280;16367;48.736;9.218;2023-03-19T07:59:44;-23488.16;;;10.12;100.00
29385;BME280;16367;48.736;9.218;2023-03-19T08:01:46;-23492.59;;;10.26;100.00
29385;BME280;16367;48.736;9.218;2023-03-19T08:03:49;-23496.06;;;10.37;100.00
29385;BME280;16367;48.736;9.218;2023-03-19T08:05:52;-23496.88;;;10.39;100.00
29385;BME280;16367;48.736;9.218;2023-03-19T08:07:55;-23495.91;;;10.36;100.00
29385;BME280;16367;48.736;9.218;2023-03-19T08:09:57;-23495.28;;;10.34;100.00
29385;BME280;16367;48.736;9.218;2023-03-19T08:12:01;-23499.56;;;10.48;100.00
29385;BME280;16367;48.736;9.218;2023-03-19T08:14:04;-23510.31;;;10.82;100.00
29385;BME280;16367;48.736;9.218;2023-03-19T08:16:07;-23512.84;;;10.90;100.00
29385;BME280;16367;48.736;9.218;2023-03-19T08:18:10;-23516.34;;;11.01;100.00
29385;BME280;16367;48.736;9.218;2023-03-19T08:20:15;-23514.13;;;10.94;100.00
29385;BME280;16367;48.736;9.218;2023-03-19T08:22:17;-23517.28;;;11.04;100.00
29385;BME280;16367;48.736;9.218;2023-03-19T08:24:20;-23509.69;;;10.80;100.00
29385;BME280;16367;48.736;9.218;2023-03-19T08:26:23;-23518.56;;;11.08;100.00
29385;BME280;16367;48.736;9.218;2023-03-19T08:28:27;-23517.13;;;11.04;98.63
29385;BME280;16367;48.736;9.218;2023-03-19T08:30:30;-23511.91;;;10.87;99.23
29385;BME280;16367;48.736;9.218;2023-03-19T08:32:34;-23518.09;;;11.07;98.36
29385;BME280;16367;48.736;9.218;2023-03-19T08:34:37;-23518.56;;;11.08;98.74
29385;BME280;16367;48.736;9.218;2023-03-19T08:36:40;-23528.22;;;11.39;98.13
29385;BME280;16367;48.736;9.218;2023-03-19T08:38:43;-23518.56;;;11.08;97.80
29385;BME280;16367;48.736;9.218;2023-03-19T08:40:45;-23532.34;;;11.52;98.15
29385;BME280;16367;48.736;9.218;2023-03-19T08:42:49;-23531.22;;;11.49;98.93
29385;BME280;16367;48.736;9.218;2023-03-19T08:44:53;-23528.84;;;11.41;99.35
29385;BME280;16367;48.736;9.218;2023-03-19T08:46:56;-23527.13;;;11.36;99.94
29385;BME280;16367;48.736;9.218;2023-03-19T08:48:59;-23530.28;;;11.46;99.43
29385;BME280;16367;48.736;9.218;2023-03-19T08:51:02;-23526.47;;;11.34;99.36
29385;BME280;16367;48.736;9.218;2023-03-19T08:53:05;-23535.03;;;11.61;98.50
29385;BME280;16367;48.736;9.218;2023-03-19T08:55:09;-23535.66;;;11.63;98.15
29385;BME280;16367;48.736;9.218;2023-03-19T08:57:11;-23541.34;;;11.81;96.82
29385;BME280;16367;48.736;9.218;2023-03-19T08:59:15;-23541.53;;;11.81;96.78
29385;BME280;16367;48.736;9.218;2023-03-19T09:01:19;-23548.00;;;12.02;93.37
29385;BME280;16367;48.736;9.218;2023-03-19T09:03:22;-23550.06;;;12.09;93.38
29385;BME280;16367;48.736;9.218;2023-03-19T09:05:24;-23546.09;;;11.96;93.62
29385;BME280;16367;48.736;9.218;2023-03-19T09:07:30;-23542.16;;;11.83;96.12
29385;BME280;16367;48.736;9.218;2023-03-19T09:09:32;-23548.47;;;12.04;94.21
29385;BME280;16367;48.736;9.218;2023-03-19T09:11:35;-23547.69;;;12.01;96.09
29385;BME280;16367;48.736;9.218;2023-03-19T09:13:38;-23553.69;;;12.20;94.52
29385;BME280;16367;48.736;9.218;2023-03-19T09:15:41;-23561.44;;;12.45;93.54
29385;BME280;16367;48.736;9.218;2023-03-19T09:17:45;-23560.66;;;12.42;92.15
29385;BME280;16367;48.736;9.218;2023-03-19T09:19:48;-23560.97;;;12.43;93.51
29385;BME280;16367;48.736;9.218;2023-03-19T09:21:51;-23575.69;;;12.90;91.62
29385;BME280;16367;48.736;9.218;2023-03-19T09:23:53;-23564.78;;;12.55;90.87
29385;BME280;16367;48.736;9.218;2023-03-19T09:25:56;-23572.34;;;12.80;90.81
29385;BME280;16367;48.736;9.218;2023-03-19T09:27:59;-23576.00;;;12.91;87.59
29385;BME280;16367;48.736;9.218;2023-03-19T09:30:02;-23574.56;;;12.87;87.19
29385;BME280;16367;48.736;9.218;2023-03-19T09:32:04;-23588.00;;;13.29;85.07
29385;BME280;16367;48.736;9.218;2023-03-19T09:34:08;-23597.34;;;13.59;83.50
29385;BME280;16367;48.736;9.218;2023-03-19T09:36:11;-23590.38;;;13.37;85.13
29385;BME280;16367;48.736;9.218;2023-03-19T09:38:14;-23601.13;;;13.71;82.23
29385;BME280;16367;48.736;9.218;2023-03-19T09:40:21;-23651.00;;;15.30;73.96
29385;BME280;16367;48.736;9.218;2023-03-19T09:42:48;-23666.00;;;15.78;68.26
29385;BME280;16367;48.736;9.218;2023-03-19T09:44:54;-23647.84;;;15.20;73.04
29385;BME280;16367;48.736;9.218;2023-03-19T09:47:00;-23694.97;;;16.71;65.55
29385;BME280;16367;48.736;9.218;2023-03-19T09:49:12;-23715.59;;;17.37;65.32
29385;BME280;16367;48.736;9.218;2023-03-19T09:51:20;-23728.97;;;17.79;60.80
29385;BME280;16367;48.736;9.218;2023-03-19T09:53:34;-23717.66;;;17.43;60.48
29385;BME280;16367;48.736;9.218;2023-03-19T09:55:42;-23752.09;;;18.53;58.81
29385;BME280;16367;48.736;9.218;2023-03-19T09:57:46;-23743.91;;;18.27;57.25
29385;BME280;16367;48.736;9.218;2023-03-19T09:59:49;-23698.28;;;16.81;59.67
29385;BME280;16367;48.736;9.218;2023-03-19T10:01:58;-23711.34;;;17.23;61.47
29385;BME280;16367;48.736;9.218;2023-03-19T10:04:19;-23705.06;;;17.03;56.54
29385;BME280;16367;48.736;9.218;2023-03-19T10:06:33;-23688.84;;;16.51;59.74
29385;BME280;16367;48.736;9.218;2023-03-19T10:08:43;-23751.31;;;18.51;55.45
29385;BME280;16367;48.736;9.218;2023-03-19T10:10:52;-23783.69;;;19.55;53.52
29385;BME280;16367;48.736;9.218;2023-03-19T10:13:08;-23779.28;;;19.41;51.57
29385;BME280;16367;48.736;9.218;2023-03-19T10:15:20;-23734.50;;;17.97;56.01
29385;BME280;16367;48.736;9.218;2023-03-19T10:17:31;-23675.91;;;16.10;58.79
29385;BME280;16367;48.736;9.218;2023-03-19T10:19:40;-23717.81;;;17.44;58.92
29385;BME280;16367;48.736;9.218;2023-03-19T10:21:49;-23709.16;;;17.16;59.70
29385;BME280;16367;48.736;9.218;2023-03-19T10:24:00;-23734.81;;;17.98;56.76
29385;BME280;16367;48.736;9.218;2023-03-19T10:26:08;-23731.66;;;17.88;55.25
29385;BME280;16367;48.736;9.218;2023-03-19T10:28:15;-23781.81;;;19.49;53.16
29385;BME280;16367;48.736;9.218;2023-03-19T10:30:19;-23755.25;;;18.64;53.26
29385;BME280;16367;48.736;9.218;2023-03-19T10:32:27;-23731.34;;;17.87;57.27
29385;BME280;16367;48.736;9.218;2023-03-19T10:34:40;-23759.66;;;18.78;56.42
29385;BME280;16367;48.736;9.218;2023-03-19T10:36:44;-23694.19;;;16.68;56.97
29385;BME280;16367;48.736;9.218;2023-03-19T10:38:47;-23735.44;;;18.00;54.72
29385;BME280;16367;48.736;9.218;2023-03-19T10:40:59;-23712.78;;;17.28;54.48
29385;BME280;16367;48.736;9.218;2023-03-19T10:43:12;-23709.63;;;17.17;55.01
29385;BME280;16367;48.736;9.218;2023-03-19T10:45:22;-23722.53;;;17.59;55.73
29385;BME280;16367;48.736;9.218;2023-03-19T10:47:26;-23706.47;;;17.07;55.90